sensor_id;sensor_type;location;lat;lon;timestamp;temperature;humidity
29855;DHT22;16733;48.738;9.106;2023-04-15T00:00:40;6.30;99.90
29855;DHT22;16733;48.738;9.106;2023-04-15T00:03:06;6.20;99.90
29855;DHT22;16733;48.738;9.106;2023-04-15T00:05:33;6.20;99.90
29855;DHT22;16733;48.738;9.106;2023-04-15T00:07:59;6.10;99.90
29855;DHT22;16733;48.738;9.106;2023-04-15T00:10:26;6.10;99.90
29855;DHT22;16733;48.738;9.106;2023-04-15T00:12:51;6.10;99.90
29855;DHT22;16733;48.738;9.106;2023-04-15T00:15:17;6.10;99.90
29855;DHT22;16733;48.738;9.106;2023-04-15T00:17:43;6.00;99.90
29855;DHT22;16733;48.738;9.106;2023-04-15T00:20:09;6.10;99.90
29855;DHT22;16733;48.738;9.106;2023-04-15T00:22:35;6.00;99.90
29855;DHT22;16733;48.738;9.106;2023-04-15T00:25:01;6.00;99.90
29855;DHT22;16733;48.738;9.106;2023-04-15T00:27:29;6.00;99.90
29855;DHT22;16733;48.738;9.106;2023-04-15T00:29:55;6.00;99.90
29855;DHT22;16733;48.738;9.106;2023-04-15T00:35:43;6.00;99.90
29855;DHT22;16733;48.738;9.106;2023-04-15T00:38:09;6.00;99.90
29855;DHT22;16733;48.738;9.106;2023-04-15T00:40:35;5.90;99.90
29855;DHT22;16733;48.738;9.106;2023-04-15T00:46:22;6.00;99.90
29855;DHT22;16733;48.738;9.106;2023-04-15T00:48:50;6.00;99.90
29855;DHT22;16733;48.738;9.106;2023-04-15T00:51:16;6.00;99.90
29855;DHT22;16733;48.738;9.106;2023-04-15T00:53:41;6.00;99.90
29855;DHT22;16733;48.738;9.106;2023-04-15T00:56:08;5.90;99.90
29855;DHT22;16733;48.738;9.106;2023-04-15T00:58:33;5.90;99.90
29855;DHT22;16733;48.738;9.106;2023-04-15T01:00:59;5.90;99.90
29855;DHT22;16733;48.738;9.106;2023-04-15T01:03:24;5.80;99.90
29855;DHT22;16733;48.738;9.106;2023-04-15T01:05:52;5.80;99.90
29855;DHT22;16733;48.738;9.106;2023-04-15T01:08:25;5.70;99.90
29855;DHT22;16733;48.738;9.106;2023-04-15T01:10:52;5.70;99.90
29855;DHT22;16733;48.738;9.106;2023-04-15T01:13:18;5.70;99.90
29855;DHT22;16733;48.738;9.106;2023-04-15T01:15:46;5.70;99.90
29855;DHT22;16733;48.738;9.106;2023-04-15T01:18:11;5.60;99.90
29855;DHT22;16733;48.738;9.106;2023-04-15T01:20:37;5.60;99.90
29855;DHT22;16733;48.738;9.106;2023-04-15T01:23:04;5.60;99.90
29855;DHT22;16733;48.738;9.106;2023-04-15T01:25:31;5.50;99.90
29855;DHT22;16733;48.738;9.106;2023-04-15T01:27:57;5.40;99.90
29855;DHT22;16733;48.738;9.106;2023-04-15T01:30:23;5.30;99.90
29855;DHT22;16733;48.738;9.106;2023-04-15T01:32:50;5.30;99.90
29855;DHT22;16733;48.738;9.106;2023-04-15T01:35:16;5.30;99.90
29855;DHT22;16733;48.738;9.106;2023-04-15T01:37:41;5.30;99.90
29855;DHT22;16733;48.738;9.106;2023-04-15T01:40:07;5.30;99.90
29855;DHT22;16733;48.738;9.106;2023-04-15T01:42:35;5.40;99.90
29855;DHT22;16733;48.738;9.106;2023-04-15T01:45:01;5.40;99.90
29855;DHT22;16733;48.738;9.106;2023-04-15T01:50:49;5.30;99.90
29855;DHT22;16733;48.738;9.106;2023-04-15T01:53:15;5.30;99.90
29855;DHT22;16733;48.738;9.106;2023-04-15T01:59:03;5.30;99.90
29855;DHT22;16733;48.738;9.106;2023-04-15T02:01:28;5.20;99.90
29855;DHT22;16733;48.738;9.106;2023-04-15T02:03:54;5.20;99.90
29855;DHT22;16733;48.738;9.106;2023-04-15T02:06:19;5.10;99.90
29855;DHT22;16733;48.738;9.106;2023-04-15T02:08:45;5.10;99.90
29855;DHT22;16733;48.738;9.106;2023-04-15T02:11:11;5.10;99.90
29855;DHT22;16733;48.738;9.106;2023-04-15T02:13:36;5.10;99.90
29855;DHT22;16733;48.738;9.106;2023-04-15T02:16:02;5.10;99.90
29855;DHT22;16733;48.738;9.106;2023-04-15T02:18:28;5.10;99.90
29855;DHT22;16733;48.738;9.106;2023-04-15T02:24:15;5.00;99.90
29855;DHT22;16733;48.738;9.106;2023-04-15T02:26:41;5.00;99.90
29855;DHT22;16733;48.738;9.106;2023-04-15T02:29:06;5.00;99.90
29855;DHT22;16733;48.738;9.106;2023-04-15T02:31:33;4.90;99.90
29855;DHT22;16733;48.738;9.106;2023-04-15T02:34:01;4.90;99.90
29855;DHT22;16733;48.738;9.106;2023-04-15T02:36:29;4.90;99.90
29855;DHT22;16733;48.738;9.106;2023-04-15T02:38:55;4.90;99.90
29855;DHT22;16733;48.738;9.106;2023-04-15T02:41:22;4.90;99.90
29855;DHT22;16733;48.738;9.106;2023-04-15T02:43:51;4.90;99.90
29855;DHT22;16733;48.738;9.106;2023-04-15T02:46:17;4.90;99.90
29855;DHT22;16733;48.738;9.106;2023-04-15T02:48:42;4.90;99.90
29855;DHT22;16733;48.738;9.106;2023-04-15T02:51:16;4.90;99.90
29855;DHT22;16733;48.738;9.106;2023-04-15T02:53:44;4.90;99.90
29855;DHT22;16733;48.738;9.106;2023-04-15T02:59:32;4.90;99.90
29855;DHT22;16733;48.738;9.106;2023-04-15T03:01:57;4.90;99.90
29855;DHT22;16733;48.738;9.106;2023-04-15T03:07:47;4.80;99.90
29855;DHT22;16733;48.738;9.106;2023-04-15T03:10:13;4.80;99.90
29855;DHT22;16733;48.738;9.106;2023-04-15T03:12:38;4.70;99.90
29855;DHT22;16733;48.738;9.106;2023-04-15T03:18:27;4.70;99.90
29855;DHT22;16733;48.738;9.106;2023-04-15T03:20:53;4.70;99.90
29855;DHT22;16733;48.738;9.106;2023-04-15T03:26:41;4.70;99.90
29855;DHT22;16733;48.738;9.106;2023-04-15T03:29:07;4.70;99.90
29855;DHT22;16733;48.738;9.106;2023-04-15T03:31:32;4.70;99.90
29855;DHT22;16733;48.738;9.106;2023-04-15T03:33:58;4.70;99.90
29855;DHT22;16733;48.738;9.106;2023-04-15T03:36:23;4.70;99.90
29855;DHT22;16733;48.738;9.106;2023-04-15T03:38:50;4.80;99.90
29855;DHT22;16733;48.738;9.106;2023-04-15T03:41:15;4.80;99.90
29855;DHT22;16733;48.738;9.106;2023-04-15T03:43:41;4.70;99.90
29855;DHT22;16733;48.738;9.106;2023-04-15T03:46:07;4.70;99.90
29855;DHT22;16733;48.738;9.106;2023-04-15T03:48:32;4.70;99.90
29855;DHT22;16733;48.738;9.106;2023-04-15T03:50:58;4.70;99.90
29855;DHT22;16733;48.738;9.106;2023-04-15T03:53:23;4.70;99.90
29855;DHT22;16733;48.738;9.106;2023-04-15T03:55:49;4.80;99.90
29855;DHT22;16733;48.738;9.106;2023-04-15T03:58:15;4.80;99.90
29855;DHT22;16733;48.738;9.106;2023-04-15T04:04:03;4.60;99.90
29855;DHT22;16733;48.738;9.106;2023-04-15T04:06:28;4.60;99.90
29855;DHT22;16733;48.738;9.106;2023-04-15T04:08:54;4.50;99.90
29855;DHT22;16733;48.738;9.106;2023-04-15T04:14:43;4.40;99.90
29855;DHT22;16733;48.738;9.106;2023-04-15T04:17:08;4.40;99.90
29855;DHT22;16733;48.738;9.106;2023-04-15T04:22:57;4.40;99.90
29855;DHT22;16733;48.738;9.106;2023-04-15T04:25:23;4.40;99.90
29855;DHT22;16733;48.738;9.106;2023-04-15T04:31:11;4.40;99.90
29855;DHT22;16733;48.738;9.106;2023-04-15T04:33:36;4.40;99.90
29855;DHT22;16733;48.738;9.106;2023-04-15T04:36:02;4.30;99.90
29855;DHT22;16733;48.738;9.106;2023-04-15T04:38:27;4.30;99.90
29855;DHT22;16733;48.738;9.106;2023-04-15T04:40:53;4.40;99.90
29855;DHT22;16733;48.738;9.106;2023-04-15T04:43:19;4.40;99.90
29855;DHT22;16733;48.738;9.106;2023-04-15T04:45:44;4.40;99.90
29855;DHT22;16733;48.738;9.106;2023-04-15T04:48:10;4.40;99.90
29855;DHT22;16733;48.738;9.106;2023-04-15T04:50:35;4.40;99.90
29855;DHT22;16733;48.738;9.106;2023-04-15T04:53:01;4.40;99.90
29855;DHT22;16733;48.738;9.106;2023-04-15T04:55:27;4.50;99.90
29855;DHT22;16733;48.738;9.106;2023-04-15T04:57:53;4.60;99.90
29855;DHT22;16733;48.738;9.106;2023-04-15T05:00:19;4.50;99.90
29855;DHT22;16733;48.738;9.106;2023-04-15T05:02:44;4.50;99.90
29855;DHT22;16733;48.738;9.106;2023-04-15T05:05:10;4.50;99.90
29855;DHT22;16733;48.738;9.106;2023-04-15T05:07:36;4.50;99.90
29855;DHT22;16733;48.738;9.106;2023-04-15T05:10:03;4.50;99.90
29855;DHT22;16733;48.738;9.106;2023-04-15T05:12:28;4.60;99.90
29855;DHT22;16733;48.738;9.106;2023-04-15T05:14:54;4.60;99.90
29855;DHT22;16733;48.738;9.106;2023-04-15T05:17:20;4.60;99.90
29855;DHT22;16733;48.738;9.106;2023-04-15T05:19:46;4.60;99.90
29855;DHT22;16733;48.738;9.106;2023-04-15T05:22:11;4.60;99.90
29855;DHT22;16733;48.738;9.106;2023-04-15T05:24:37;4.60;99.90
29855;DHT22;16733;48.738;9.106;2023-04-15T05:27:03;4.60;99.90
29855;DHT22;16733;48.738;9.106;2023-04-15T05:29:29;4.60;99.90
29855;DHT22;16733;48.738;9.106;2023-04-15T05:31:55;4.60;99.90
29855;DHT22;16733;48.738;9.106;2023-04-15T05:34:20;4.60;99.90
29855;DHT22;16733;48.738;9.106;2023-04-15T05:36:46;4.70;99.90
29855;DHT22;16733;48.738;9.106;2023-04-15T05:42:34;4.80;99.90
29855;DHT22;16733;48.738;9.106;2023-04-15T05:48:22;4.90;99.90
29855;DHT22;16733;48.738;9.106;2023-04-15T05:50:47;5.00;99.90
29855;DHT22;16733;48.738;9.106;2023-04-15T05:53:13;5.10;99.90
29855;DHT22;16733;48.738;9.106;2023-04-15T05:55:38;5.10;99.90
29855;DHT22;16733;48.738;9.106;2023-04-15T05:58:04;5.20;99.90
29855;DHT22;16733;48.738;9.106;2023-04-15T06:00:29;5.30;99.90
29855;DHT22;16733;48.738;9.106;2023-04-15T06:02:55;5.40;99.90
29855;DHT22;16733;48.738;9.106;2023-04-15T06:08:44;5.60;99.90
29855;DHT22;16733;48.738;9.106;2023-04-15T06:11:10;5.80;99.90
29855;DHT22;16733;48.738;9.106;2023-04-15T06:13:36;5.90;99.90
29855;DHT22;16733;48.738;9.106;2023-04-15T06:16:01;6.00;99.90
29855;DHT22;16733;48.738;9.106;2023-04-15T06:18:28;6.20;99.90
29855;DHT22;16733;48.738;9.106;2023-04-15T06:20:53;6.40;99.90
29855;DHT22;16733;48.738;9.106;2023-04-15T06:23:19;6.50;99.90
29855;DHT22;16733;48.738;9.106;2023-04-15T06:25:45;6.60;99.90
29855;DHT22;16733;48.738;9.106;2023-04-15T06:28:11;6.70;99.90
29855;DHT22;16733;48.738;9.106;2023-04-15T06:30:36;6.80;99.90
29855;DHT22;16733;48.738;9.106;2023-04-15T06:33:03;7.00;99.90
29855;DHT22;16733;48.738;9.106;2023-04-15T06:35:30;7.10;99.90
29855;DHT22;16733;48.738;9.106;2023-04-15T06:37:56;7.30;99.90
29855;DHT22;16733;48.738;9.106;2023-04-15T06:40:21;7.40;99.90
29855;DHT22;16733;48.738;9.106;2023-04-15T06:42:47;7.60;99.90
29855;DHT22;16733;48.738;9.106;2023-04-15T06:45:12;7.70;99.90
29855;DHT22;16733;48.738;9.106;2023-04-15T06:47:58;7.90;99.90
29855;DHT22;16733;48.738;9.106;2023-04-15T06:50:24;8.10;99.90
29855;DHT22;16733;48.738;9.106;2023-04-15T06:52:49;8.20;99.90
29855;DHT22;16733;48.738;9.106;2023-04-15T06:55:15;8.40;99.90
29855;DHT22;16733;48.738;9.106;2023-04-15T06:57:41;8.50;99.90
29855;DHT22;16733;48.738;9.106;2023-04-15T07:00:07;8.60;99.90
29855;DHT22;16733;48.738;9.106;2023-04-15T07:02:33;8.70;99.90
29855;DHT22;16733;48.738;9.106;2023-04-15T07:04:58;8.90;99.90
29855;DHT22;16733;48.738;9.106;2023-04-15T07:07:24;8.90;99.90
29855;DHT22;16733;48.738;9.106;2023-04-15T07:09:50;9.10;99.90
29855;DHT22;16733;48.738;9.106;2023-04-15T07:12:18;9.10;99.90
29855;DHT22;16733;48.738;9.106;2023-04-15T07:14:57;9.20;99.90
29855;DHT22;16733;48.738;9.106;2023-04-15T07:17:23;9.20;99.90
29855;DHT22;16733;48.738;9.106;2023-04-15T07:19:48;9.20;99.90
29855;DHT22;16733;48.738;9.106;2023-04-15T07:22:14;9.20;99.90
29855;DHT22;16733;48.738;9.106;2023-04-15T07:24:40;9.20;99.90
29855;DHT22;16733;48.738;9.106;2023-04-15T07:30:27;9.30;99.90
29855;DHT22;16733;48.738;9.106;2023-04-15T07:32:53;9.40;99.90
29855;DHT22;16733;48.738;9.106;2023-04-15T07:38:41;9.50;99.90
29855;DHT22;16733;48.738;9.106;2023-04-15T07:41:07;9.60;99.90
29855;DHT22;16733;48.738;9.106;2023-04-15T07:53:40;10.40;99.90
29855;DHT22;16733;48.738;9.106;2023-04-15T07:56:06;10.60;99.90
29855;DHT22;16733;48.738;9.106;2023-04-15T08:01:54;11.00;99.90
29855;DHT22;16733;48.738;9.106;2023-04-15T08:04:20;11.20;99.90
29855;DHT22;16733;48.738;9.106;2023-04-15T08:10:08;11.30;99.90
29855;DHT22;16733;48.738;9.106;2023-04-15T08:12:34;11.30;99.90
29855;DHT22;16733;48.738;9.106;2023-04-15T08:18:22;11.00;99.90
29855;DHT22;16733;48.738;9.106;2023-04-15T08:20:47;10.90;99.90
29855;DHT22;16733;48.738;9.106;2023-04-15T08:23:13;10.80;99.90
29855;DHT22;16733;48.738;9.106;2023-04-15T08:25:39;10.80;99.90
29855;DHT22;16733;48.738;9.106;2023-04-15T08:28:05;10.80;99.90
29855;DHT22;16733;48.738;9.106;2023-04-15T08:30:33;10.90;99.90
29855;DHT22;16733;48.738;9.106;2023-04-15T08:32:59;11.00;99.90
29855;DHT22;16733;48.738;9.106;2023-04-15T08:35:25;11.10;99.90
29855;DHT22;16733;48.738;9.106;2023-04-15T08:41:24;11.40;99.90
29855;DHT22;16733;48.738;9.106;2023-04-15T08:43:56;11.50;99.90
29855;DHT22;16733;48.738;9.106;2023-04-15T08:46:22;11.60;99.90
29855;DHT22;16733;48.738;9.106;2023-04-15T08:48:49;11.70;99.90
29855;DHT22;16733;48.738;9.106;2023-04-15T08:51:18;11.70;99.90
29855;DHT22;16733;48.738;9.106;2023-04-15T08:53:44;11.80;99.90
29855;DHT22;16733;48.738;9.106;2023-04-15T08:56:13;11.90;99.90
29855;DHT22;16733;48.738;9.106;2023-04-15T09:02:01;12.10;99.90
29855;DHT22;16733;48.738;9.106;2023-04-15T09:04:27;12.20;99.90
29855;DHT22;16733;48.738;9.106;2023-04-15T09:06:53;12.30;99.90
29855;DHT22;16733;48.738;9.106;2023-04-15T09:09:37;12.40;99.90
29855;DHT22;16733;48.738;9.106;2023-04-15T09:12:04;12.50;99.90
29855;DHT22;16733;48.738;9.106;2023-04-15T09:14:30;12.50;99.90
29855;DHT22;16733;48.738;9.106;2023-04-15T09:17:02;12.60;99.90
29855;DHT22;16733;48.738;9.106;2023-04-15T09:22:50;12.60;99.90
29855;DHT22;16733;48.738;9.106;2023-04-15T09:31:16;12.70;99.90
29855;DHT22;16733;48.738;9.106;2023-04-15T09:33:54;12.80;99.90
29855;DHT22;16733;48.738;9.106;2023-04-15T09:36:23;13.00;99.90
29855;DHT22;16733;48.738;9.106;2023-04-15T09:38:59;13.00;99.90
29855;DHT22;16733;48.738;9.106;2023-04-15T09:41:25;13.00;99.90
29855;DHT22;16733;48.738;9.106;2023-04-15T09:43:51;13.00;99.90
29855;DHT22;16733;48.738;9.106;2023-04-15T09:46:17;12.90;99.90
29855;DHT22;16733;48.738;9.106;2023-04-15T09:48:43;12.90;99.90
29855;DHT22;16733;48.738;9.106;2023-04-15T09:51:09;13.00;99.90
29855;DHT22;16733;48.738;9.106;2023-04-15T09:53:35;13.10;99.90
29855;DHT22;16733;48.738;9.106;2023-04-15T09:56:03;13.20;99.90
29855;DHT22;16733;48.738;9.106;2023-04-15T09:58:33;13.30;99.90
29855;DHT22;16733;48.738;9.106;2023-04-15T10:01:01;13.40;99.90
29855;DHT22;16733;48.738;9.106;2023-04-15T10:03:29;13.50;99.90
29855;DHT22;16733;48.738;9.106;2023-04-15T10:05:57;13.50;96.80
29855;DHT22;16733;48.738;9.106;2023-04-15T10:08:25;13.40;96.40
29855;DHT22;16733;48.738;9.106;2023-04-15T10:10:52;13.30;95.40
29855;DHT22;16733;48.738;9.106;2023-04-15T10:13:20;13.20;94.10
29855;DHT22;16733;48.738;9.106;2023-04-15T10:16:09;13.00;92.40
29855;DHT22;16733;48.738;9.106;2023-04-15T10:18:39;12.90;92.90
29855;DHT22;16733;48.738;9.106;2023-04-15T10:21:06;13.00;96.10
29855;DHT22;16733;48.738;9.106;2023-04-15T10:23:32;13.00;96.20
29855;DHT22;16733;48.738;9.106;2023-04-15T10:25:58;13.00;94.20
29855;DHT22;16733;48.738;9.106;2023-04-15T10:31:47;12.90;94.40
29855;DHT22;16733;48.738;9.106;2023-04-15T10:34:13;12.90;95.20
29855;DHT22;16733;48.738;9.106;2023-04-15T10:42:55;12.80;93.80
29855;DHT22;16733;48.738;9.106;2023-04-15T10:45:21;12.70;95.80
29855;DHT22;16733;48.738;9.106;2023-04-15T10:47:54;12.70;95.70
29855;DHT22;16733;48.738;9.106;2023-04-15T10:50:19;12.70;94.20
29855;DHT22;16733;48.738;9.106;2023-04-15T10:52:50;12.70;93.50
29855;DHT22;16733;48.738;9.106;2023-04-15T10:58:42;12.80;93.70
29855;DHT22;16733;48.738;9.106;2023-04-15T11:01:08;12.90;95.70
29855;DHT22;16733;48.738;9.106;2023-04-15T11:07:05;13.00;93.50
29855;DHT22;16733;48.738;9.106;2023-04-15T11:09:31;13.00;94.80
29855;DHT22;16733;48.738;9.106;2023-04-15T11:17:52;12.70;94.10
29855;DHT22;16733;48.738;9.106;2023-04-15T11:23:40;12.70;94.80
29855;DHT22;16733;48.738;9.106;2023-04-15T11:26:12;12.80;96.90
29855;DHT22;16733;48.738;9.106;2023-04-15T11:32:09;13.00;98.20
29855;DHT22;16733;48.738;9.106;2023-04-15T11:34:35;13.30;99.00
29855;DHT22;16733;48.738;9.106;2023-04-15T11:40:27;13.70;94.90
29855;DHT22;16733;48.738;9.106;2023-04-15T11:43:11;13.70;96.70
29855;DHT22;16733;48.738;9.106;2023-04-15T11:48:58;13.60;94.70
29855;DHT22;16733;48.738;9.106;2023-04-15T11:51:24;13.60;96.60
29855;DHT22;16733;48.738;9.106;2023-04-15T11:57:12;13.60;95.10
29855;DHT22;16733;48.738;9.106;2023-04-15T11:59:44;13.80;97.40
29855;DHT22;16733;48.738;9.106;2023-04-15T12:02:11;14.10;95.50
29855;DHT22;16733;48.738;9.106;2023-04-15T12:07:59;14.20;92.10
29855;DHT22;16733;48.738;9.106;2023-04-15T12:10:25;14.20;91.50
29855;DHT22;16733;48.738;9.106;2023-04-15T12:16:16;13.90;85.10
29855;DHT22;16733;48.738;9.106;2023-04-15T12:22:09;14.00;88.40
29855;DHT22;16733;48.738;9.106;2023-04-15T12:24:36;14.10;90.40
29855;DHT22;16733;48.738;9.106;2023-04-15T12:30:24;14.30;85.50
29855;DHT22;16733;48.738;9.106;2023-04-15T12:32:51;14.30;90.50
29855;DHT22;16733;48.738;9.106;2023-04-15T12:35:16;14.30;89.70
29855;DHT22;16733;48.738;9.106;2023-04-15T12:41:05;14.20;86.60
29855;DHT22;16733;48.738;9.106;2023-04-15T12:43:31;13.90;87.40
29855;DHT22;16733;48.738;9.106;2023-04-15T12:45:57;13.60;86.00
29855;DHT22;16733;48.738;9.106;2023-04-15T12:48:22;13.40;86.00
29855;DHT22;16733;48.738;9.106;2023-04-15T12:50:48;13.20;87.60
29855;DHT22;16733;48.738;9.106;2023-04-15T12:53:13;13.20;88.00
29855;DHT22;16733;48.738;9.106;2023-04-15T12:59:01;12.80;88.40
29855;DHT22;16733;48.738;9.106;2023-04-15T13:08:11;12.40;91.00
29855;DHT22;16733;48.738;9.106;2023-04-15T13:10:36;12.40;92.30
29855;DHT22;16733;48.738;9.106;2023-04-15T13:16:24;12.10;91.50
29855;DHT22;16733;48.738;9.106;2023-04-15T13:18:50;12.10;93.30
29855;DHT22;16733;48.738;9.106;2023-04-15T13:24:38;12.10;93.70
29855;DHT22;16733;48.738;9.106;2023-04-15T13:27:04;12.20;95.60
29855;DHT22;16733;48.738;9.106;2023-04-15T13:29:29;12.20;95.50
29855;DHT22;16733;48.738;9.106;2023-04-15T13:31:55;12.20;94.40
29855;DHT22;16733;48.738;9.106;2023-04-15T13:34:21;12.20;94.30
29855;DHT22;16733;48.738;9.106;2023-04-15T13:36:46;12.10;92.80
29855;DHT22;16733;48.738;9.106;2023-04-15T13:39:12;11.90;93.10
29855;DHT22;16733;48.738;9.106;2023-04-15T13:41:38;12.00;94.00
29855;DHT22;16733;48.738;9.106;2023-04-15T13:47:26;11.90;91.40
29855;DHT22;16733;48.738;9.106;2023-04-15T13:49:52;11.90;93.80
29855;DHT22;16733;48.738;9.106;2023-04-15T13:55:42;12.10;92.50
29855;DHT22;16733;48.738;9.106;2023-04-15T13:58:08;12.10;92.50
29855;DHT22;16733;48.738;9.106;2023-04-15T14:00:34;12.10;92.10
29855;DHT22;16733;48.738;9.106;2023-04-15T14:06:21;12.30;90.60
29855;DHT22;16733;48.738;9.106;2023-04-15T14:08:47;12.30;91.60
29855;DHT22;16733;48.738;9.106;2023-04-15T14:14:35;12.30;90.10
29855;DHT22;16733;48.738;9.106;2023-04-15T14:17:02;12.30;92.30
29855;DHT22;16733;48.738;9.106;2023-04-15T14:22:50;12.20;91.60
29855;DHT22;16733;48.738;9.106;2023-04-15T14:25:16;12.20;93.00
29855;DHT22;16733;48.738;9.106;2023-04-15T14:27:41;12.10;92.50
29855;DHT22;16733;48.738;9.106;2023-04-15T14:30:07;12.10;92.30
29855;DHT22;16733;48.738;9.106;2023-04-15T14:32:33;12.10;92.50
29855;DHT22;16733;48.738;9.106;2023-04-15T14:34:58;12.10;91.80
29855;DHT22;16733;48.738;9.106;2023-04-15T14:40:46;12.00;91.50
29855;DHT22;16733;48.738;9.106;2023-04-15T14:43:12;12.00;93.40
29855;DHT22;16733;48.738;9.106;2023-04-15T14:45:38;12.00;93.50
29855;DHT22;16733;48.738;9.106;2023-04-15T14:48:03;12.10;93.10
29855;DHT22;16733;48.738;9.106;2023-04-15T14:50:31;12.00;91.80
29855;DHT22;16733;48.738;9.106;2023-04-15T14:52:57;12.00;90.60
29855;DHT22;16733;48.738;9.106;2023-04-15T14:58:45;11.70;86.20
29855;DHT22;16733;48.738;9.106;2023-04-15T15:04:33;11.50;90.00
29855;DHT22;16733;48.738;9.106;2023-04-15T15:07:00;11.50;91.00
29855;DHT22;16733;48.738;9.106;2023-04-15T15:09:26;11.40;90.40
29855;DHT22;16733;48.738;9.106;2023-04-15T15:11:51;11.40;90.60
29855;DHT22;16733;48.738;9.106;2023-04-15T15:17:39;11.10;90.00
29855;DHT22;16733;48.738;9.106;2023-04-15T15:23:27;11.00;92.50
29855;DHT22;16733;48.738;9.106;2023-04-15T15:25:52;11.00;93.10
29855;DHT22;16733;48.738;9.106;2023-04-15T15:28:18;10.80;92.50
29855;DHT22;16733;48.738;9.106;2023-04-15T15:30:46;10.80;93.90
29855;DHT22;16733;48.738;9.106;2023-04-15T15:33:11;10.80;94.80
29855;DHT22;16733;48.738;9.106;2023-04-15T15:35:38;10.80;95.60
29855;DHT22;16733;48.738;9.106;2023-04-15T15:44:48;10.80;97.80
29855;DHT22;16733;48.738;9.106;2023-04-15T15:47:27;10.80;99.60
29855;DHT22;16733;48.738;9.106;2023-04-15T15:53:14;10.70;98.70
29855;DHT22;16733;48.738;9.106;2023-04-15T15:55:48;10.70;99.80
29855;DHT22;16733;48.738;9.106;2023-04-15T15:58:14;10.70;99.90
29855;DHT22;16733;48.738;9.106;2023-04-15T16:00:40;10.70;99.30
29855;DHT22;16733;48.738;9.106;2023-04-15T16:03:06;10.70;98.10
29855;DHT22;16733;48.738;9.106;2023-04-15T16:05:31;10.70;98.90
29855;DHT22;16733;48.738;9.106;2023-04-15T16:11:19;10.70;99.20
29855;DHT22;16733;48.738;9.106;2023-04-15T16:13:45;10.80;99.90
29855;DHT22;16733;48.738;9.106;2023-04-15T16:16:11;10.80;98.70
29855;DHT22;16733;48.738;9.106;2023-04-15T16:18:36;10.80;98.40
29855;DHT22;16733;48.738;9.106;2023-04-15T16:21:02;10.80;97.90
29855;DHT22;16733;48.738;9.106;2023-04-15T16:23:27;10.80;97.30
29855;DHT22;16733;48.738;9.106;2023-04-15T16:25:53;10.70;95.40
29855;DHT22;16733;48.738;9.106;2023-04-15T16:28:18;10.70;95.90
29855;DHT22;16733;48.738;9.106;2023-04-15T16:34:06;10.40;95.90
29855;DHT22;16733;48.738;9.106;2023-04-15T16:36:33;10.30;97.70
29855;DHT22;16733;48.738;9.106;2023-04-15T16:42:22;10.00;98.60
29855;DHT22;16733;48.738;9.106;2023-04-15T16:44:47;9.80;99.90
29855;DHT22;16733;48.738;9.106;2023-04-15T16:47:13;9.70;99.90
29855;DHT22;16733;48.738;9.106;2023-04-15T16:53:01;9.60;99.90
29855;DHT22;16733;48.738;9.106;2023-04-15T16:55:27;9.50;99.90
29855;DHT22;16733;48.738;9.106;2023-04-15T17:01:14;9.40;99.90
29855;DHT22;16733;48.738;9.106;2023-04-15T17:03:40;9.30;99.90
29855;DHT22;16733;48.738;9.106;2023-04-15T17:09:27;9.10;99.90
29855;DHT22;16733;48.738;9.106;2023-04-15T17:11:53;9.00;99.90
29855;DHT22;16733;48.738;9.106;2023-04-15T17:14:19;8.90;99.90
29855;DHT22;16733;48.738;9.106;2023-04-15T17:20:06;8.90;99.90
29855;DHT22;16733;48.738;9.106;2023-04-15T17:22:32;8.80;99.90
29855;DHT22;16733;48.738;9.106;2023-04-15T17:28:20;8.60;99.90
29855;DHT22;16733;48.738;9.106;2023-04-15T17:30:45;8.40;99.90
29855;DHT22;16733;48.738;9.106;2023-04-15T17:36:33;8.40;99.90
29855;DHT22;16733;48.738;9.106;2023-04-15T17:38:59;8.30;99.90
29855;DHT22;16733;48.738;9.106;2023-04-15T17:41:24;8.20;99.90
29855;DHT22;16733;48.738;9.106;2023-04-15T17:43:50;8.20;99.90
29855;DHT22;16733;48.738;9.106;2023-04-15T17:46:16;8.20;99.90
29855;DHT22;16733;48.738;9.106;2023-04-15T17:48:43;8.20;99.90
29855;DHT22;16733;48.738;9.106;2023-04-15T17:51:09;8.10;99.90
29855;DHT22;16733;48.738;9.106;2023-04-15T17:53:34;8.10;99.90
29855;DHT22;16733;48.738;9.106;2023-04-15T17:56:00;8.20;99.90
29855;DHT22;16733;48.738;9.106;2023-04-15T17:58:26;8.10;99.90
29855;DHT22;16733;48.738;9.106;2023-04-15T18:00:52;8.20;99.90
29855;DHT22;16733;48.738;9.106;2023-04-15T18:06:40;8.00;99.90
29855;DHT22;16733;48.738;9.106;2023-04-15T18:09:06;8.00;99.90
29855;DHT22;16733;48.738;9.106;2023-04-15T18:11:33;7.90;99.90
29855;DHT22;16733;48.738;9.106;2023-04-15T18:14:00;7.90;99.90
29855;DHT22;16733;48.738;9.106;2023-04-15T18:16:26;7.90;99.90
29855;DHT22;16733;48.738;9.106;2023-04-15T18:18:53;7.90;99.90
29855;DHT22;16733;48.738;9.106;2023-04-15T18:21:18;7.90;99.90
29855;DHT22;16733;48.738;9.106;2023-04-15T18:23:44;7.80;99.90
29855;DHT22;16733;48.738;9.106;2023-04-15T18:26:10;7.80;99.90
29855;DHT22;16733;48.738;9.106;2023-04-15T18:28:35;7.80;99.90
29855;DHT22;16733;48.738;9.106;2023-04-15T18:31:03;7.80;99.90
29855;DHT22;16733;48.738;9.106;2023-04-15T18:33:28;7.80;99.90
29855;DHT22;16733;48.738;9.106;2023-04-15T18:35:54;7.80;99.90
29855;DHT22;16733;48.738;9.106;2023-04-15T18:38:22;7.80;99.90
29855;DHT22;16733;48.738;9.106;2023-04-15T18:40:47;7.70;99.90
29855;DHT22;16733;48.738;9.106;2023-04-15T18:43:13;7.70;99.90
29855;DHT22;16733;48.738;9.106;2023-04-15T18:45:38;7.70;99.90
29855;DHT22;16733;48.738;9.106;2023-04-15T18:48:04;7.60;99.90
29855;DHT22;16733;48.738;9.106;2023-04-15T18:50:30;7.70;99.90
29855;DHT22;16733;48.738;9.106;2023-04-15T18:52:56;7.60;99.90
29855;DHT22;16733;48.738;9.106;2023-04-15T18:55:22;7.60;99.90
29855;DHT22;16733;48.738;9.106;2023-04-15T18:57:47;7.60;99.90
29855;DHT22;16733;48.738;9.106;2023-04-15T19:00:13;7.60;99.90
29855;DHT22;16733;48.738;9.106;2023-04-15T19:02:40;7.60;99.90
29855;DHT22;16733;48.738;9.106;2023-04-15T19:05:07;7.60;99.90
29855;DHT22;16733;48.738;9.106;2023-04-15T19:07:34;7.60;99.90
29855;DHT22;16733;48.738;9.106;2023-04-15T19:10:00;7.60;99.90
29855;DHT22;16733;48.738;9.106;2023-04-15T19:12:26;7.60;99.90
29855;DHT22;16733;48.738;9.106;2023-04-15T19:14:52;7.50;99.90
29855;DHT22;16733;48.738;9.106;2023-04-15T19:17:17;7.60;99.90
29855;DHT22;16733;48.738;9.106;2023-04-15T19:19:43;7.60;99.90
29855;DHT22;16733;48.738;9.106;2023-04-15T19:22:08;7.60;99.90
29855;DHT22;16733;48.738;9.106;2023-04-15T19:24:34;7.60;99.90
29855;DHT22;16733;48.738;9.106;2023-04-15T19:27:00;7.50;99.90
29855;DHT22;16733;48.738;9.106;2023-04-15T19:29:26;7.50;99.90
29855;DHT22;16733;48.738;9.106;2023-04-15T19:31:54;7.50;99.90
29855;DHT22;16733;48.738;9.106;2023-04-15T19:34:20;7.50;99.90
29855;DHT22;16733;48.738;9.106;2023-04-15T19:36:45;7.50;99.90
29855;DHT22;16733;48.738;9.106;2023-04-15T19:39:11;7.50;99.90
29855;DHT22;16733;48.738;9.106;2023-04-15T19:41:37;7.60;99.90